Time;durP1;ratioP1;P1;durP2;ratioP2;P2;SDS_P1;SDS_P2;PMS_P1;PMS_P2;Temp;Humidity;BMP_temperature;BMP_pressure;BME280_temperature;BME280_humidity;BME280_pressure;Samples;Min_cycle;Max_cycle;Signal;HPM_P1;HPM_P2
2022/09/16 00:01:34;;;;;;;2.62;1.50;;;21.90;80.30;;;;;;1917251;75;21092;-60
2022/09/16 00:04:04;;;;;;;1.65;1.10;;;22.00;80.30;;;;;;1917323;75;21010;-60
2022/09/16 00:06:33;;;;;;;3.47;1.37;;;22.00;80.30;;;;;;1917233;75;21116;-60
2022/09/16 00:09:03;;;;;;;2.08;1.30;;;22.00;80.30;;;;;;1917355;75;21014;-60
2022/09/16 00:11:36;;;;;;;3.42;1.70;;;22.00;80.40;;;;;;1917281;75;21025;-60
2022/09/16 00:14:05;;;;;;;2.77;2.08;;;22.00;80.60;;;;;;1917413;75;21171;-60
2022/09/16 00:16:34;;;;;;;2.77;1.30;;;22.00;80.80;;;;;;1917322;75;21006;-60
2022/09/16 00:19:04;;;;;;;4.15;1.65;;;22.00;80.70;;;;;;1917359;75;21517;-60
2022/09/16 00:21:33;;;;;;;2.85;1.45;;;22.00;80.90;;;;;;1917121;75;21030;-60
2022/09/16 00:24:03;;;;;;;5.00;1.50;;;22.00;81.00;;;;;;1917237;75;21010;-60
2022/09/16 00:26:33;;;;;;;2.05;1.52;;;22.00;81.40;;;;;;1917298;75;21103;-60
2022/09/16 00:29:03;;;;;;;2.58;1.60;;;22.00;80.70;;;;;;1917188;75;21038;-60
2022/09/16 00:31:33;;;;;;;2.17;1.52;;;22.00;80.70;;;;;;1917179;74;21054;-58
2022/09/16 00:34:03;;;;;;;2.02;1.12;;;22.00;80.60;;;;;;1907497;75;21109;-60
2022/09/16 00:36:32;;;;;;;1.98;1.30;;;22.10;80.40;;;;;;1907333;75;21084;-60
2022/09/16 00:39:01;;;;;;;2.02;1.30;;;22.00;80.20;;;;;;1907366;75;21096;-60
2022/09/16 00:41:35;;;;;;;4.00;1.42;;;22.10;80.30;;;;;;1907377;75;21026;-60
2022/09/16 00:44:05;;;;;;;;;;;22.10;80.10;;;;;;1910333;75;21437;-60
2022/09/16 00:46:43;;;;;;;2.25;1.50;;;22.00;79.50;;;;;;1907371;75;20138;-60
2022/09/16 00:49:18;;;;;;;5.40;1.55;;;22.10;79.80;;;;;;1906757;75;21080;-60
2022/09/16 00:51:51;;;;;;;4.58;1.37;;;22.10;79.90;;;;;;1907265;75;21124;-60
2022/09/16 00:54:21;;;;;;;7.78;1.75;;;22.10;80.00;;;;;;1907456;75;21034;-60
2022/09/16 00:56:53;;;;;;;5.47;1.87;;;22.10;79.80;;;;;;1907363;75;21026;-60
2022/09/16 00:59:26;;;;;;;4.12;1.50;;;22.10;79.80;;;;;;1907399;75;21058;-60
2022/09/16 01:01:57;;;;;;;2.22;1.22;;;22.10;79.80;;;;;;1906364;75;20998;-59
2022/09/16 01:04:29;;;;;;;1.45;1.20;;;22.10;80.00;;;;;;1907383;75;21081;-60
2022/09/16 01:06:59;;;;;;;2.17;1.77;;;22.10;80.10;;;;;;1906290;75;21473;-60
2022/09/16 01:09:29;;;;;;;2.67;1.30;;;22.10;80.10;;;;;;1907356;75;21088;-60
2022/09/16 01:11:58;;;;;;;1.77;1.22;;;22.10;80.10;;;;;;1907308;75;21030;-60
2022/09/16 01:17:41;;;;;;;4.45;1.77;;;22.10;80.00;;;;;;1907628;75;21061;-60
2022/09/16 01:20:16;;;;;;;5.58;1.50;;;22.10;79.90;;;;;;1907618;75;21046;-60
2022/09/16 01:22:46;;;;;;;;;;;22.20;79.80;;;;;;1909617;75;21337;-60
2022/09/16 01:25:33;;;;;;;2.22;1.52;;;22.20;79.60;;;;;;1907508;75;20103;-60
2022/09/16 01:28:22;;;;;;;2.55;1.30;;;22.10;79.60;;;;;;1907501;75;21026;-60
2022/09/16 01:31:13;;;;;;;3.60;1.70;;;22.20;79.40;;;;;;1907653;75;21046;-60
2022/09/16 01:33:58;;;;;;;3.10;1.30;;;22.10;79.30;;;;;;1914174;75;21119;-60
2022/09/16 01:36:42;;;;;;;3.00;1.50;;;22.20;79.30;;;;;;1917439;75;21017;-60
2022/09/16 01:39:26;;;;;;;2.55;1.35;;;22.20;79.30;;;;;;1916404;75;21006;-60
2022/09/16 01:41:58;;;;;;;5.12;1.10;;;22.20;79.10;;;;;;1917032;75;21551;-59
2022/09/16 01:44:39;;;;;;;3.67;1.20;;;22.20;78.90;;;;;;1917278;75;21026;-59
2022/09/16 01:47:10;;;;;;;4.25;1.20;;;22.20;78.90;;;;;;1915098;75;21487;-60
2022/09/16 01:49:45;;;;;;;3.58;1.67;;;22.20;78.90;;;;;;1907246;75;21002;-60
2022/09/16 01:52:19;;;;;;;2.25;1.27;;;22.20;78.70;;;;;;1917555;75;21087;-60
2022/09/16 01:54:54;;;;;;;2.95;1.42;;;22.20;78.40;;;;;;1917567;75;21472;-59
2022/09/16 01:57:41;;;;;;;3.75;2.10;;;22.20;78.40;;;;;;1917405;75;21091;-59
2022/09/16 02:00:15;;;;;;;2.30;1.35;;;22.20;78.30;;;;;;1916844;75;21046;-60
2022/09/16 02:02:47;;;;;;;3.25;1.40;;;22.20;78.20;;;;;;1917521;75;21026;-59
2022/09/16 02:05:22;;;;;;;1.57;1.27;;;22.30;78.20;;;;;;1917395;75;21085;-60
2022/09/16 02:07:52;;;;;;;;;;;22.30;78.20;;;;;;1912162;75;21519;-60
2022/09/16 02:10:26;;;;;;;2.72;1.42;;;22.20;77.90;;;;;;1917373;75;20185;-60
2022/09/16 02:12:58;;;;;;;4.33;1.40;;;22.20;77.80;;;;;;1917474;75;21537;-60
2022/09/16 02:15:31;;;;;;;1.77;1.30;;;22.20;77.60;;;;;;1917442;75;21044;-59
2022/09/16 02:18:02;;;;;;;5.70;1.35;;;22.20;77.30;;;;;;1917410;75;21547;-60
2022/09/16 02:20:34;;;;;;;2.42;1.45;;;22.20;77.30;;;;;;1917321;75;21030;-59
2022/09/16 02:23:09;;;;;;;1.10;1.00;;;22.20;76.80;;;;;;1917366;75;21464;-60
2022/09/16 02:25:41;;;;;;;1.85;1.30;;;22.20;76.40;;;;;;1917342;75;21045;-60
2022/09/16 02:28:13;;;;;;;2.90;1.40;;;22.20;76.40;;;;;;1917386;75;21621;-60
2022/09/16 02:30:44;;;;;;;5.17;1.85;;;22.20;76.40;;;;;;1917205;75;21529;-59
2022/09/16 02:33:16;;;;;;;4.90;1.60;;;22.20;76.50;;;;;;1913866;75;21211;-59
2022/09/16 02:35:48;;;;;;;2.17;1.20;;;22.20;76.60;;;;;;1907598;75;21505;-59
2022/09/16 02:38:23;;;;;;;2.83;1.32;;;22.10;76.40;;;;;;1907558;75;21092;-60
2022/09/16 02:40:55;;;;;;;3.00;1.60;;;22.10;76.60;;;;;;1906038;75;21451;-59
2022/09/16 02:43:25;;;;;;;2.20;1.35;;;22.10;76.70;;;;;;1907479;75;21646;-59
2022/09/16 02:46:20;;;;;;;5.75;1.72;;;22.10;76.80;;;;;;1907427;75;21092;-60
2022/09/16 02:49:13;;;;;;;3.70;1.70;;;22.10;77.10;;;;;;1907716;75;21525;-60
2022/09/16 02:51:54;;;;;;;2.05;1.37;;;22.10;77.30;;;;;;1907559;75;21096;-60
2022/09/16 02:54:29;;;;;;;3.95;1.75;;;22.00;77.70;;;;;;1907707;75;21061;-60
2022/09/16 02:56:58;;;;;;;4.67;1.60;;;22.00;78.00;;;;;;1872985;75;21530;-60
2022/09/16 02:59:28;;;;;;;3.35;1.52;;;22.00;78.40;;;;;;1907545;75;21105;-60
2022/09/16 03:01:58;;;;;;;3.22;1.40;;;22.00;79.10;;;;;;1907418;75;21062;-60
2022/09/16 03:04:29;;;;;;;2.55;1.25;;;22.00;79.00;;;;;;1907409;75;21147;-60
2022/09/16 03:06:58;;;;;;;4.75;1.47;;;22.00;79.30;;;;;;1907437;75;21073;-60
2022/09/16 03:09:28;;;;;;;2.55;1.32;;;22.00;79.30;;;;;;1907556;75;21132;-60
2022/09/16 03:12:06;;;;;;;2.83;1.25;;;22.00;79.50;;;;;;1907541;75;21073;-60
2022/09/16 03:14:44;;;;;;;2.98;1.10;;;22.00;79.60;;;;;;1907487;75;21437;-60
2022/09/16 03:17:36;;;;;;;2.25;1.20;;;22.00;79.60;;;;;;1906903;75;21089;-60
2022/09/16 03:20:36;;;;;;;1.27;1.00;;;22.00;79.50;;;;;;1907486;75;21043;-60
2022/09/16 03:23:24;;;;;;;4.40;1.40;;;22.00;79.60;;;;;;1907387;75;21168;-60
2022/09/16 03:26:03;;;;;;;4.42;1.22;;;22.00;79.60;;;;;;1907552;75;21019;-60
2022/09/16 03:28:35;;;;;;;3.30;1.20;;;22.00;79.50;;;;;;1907545;75;21003;-60
2022/09/16 03:31:10;;;;;;;2.95;1.22;;;22.00;79.50;;;;;;1907474;75;21135;-60
2022/09/16 03:33:57;;;;;;;2.22;1.30;;;22.00;79.30;;;;;;1904714;75;21116;-58
2022/09/16 03:36:32;;;;;;;1.72;1.32;;;22.00;79.80;;;;;;1907268;75;21450;-58
2022/09/16 03:39:02;;;;;;;2.40;1.20;;;22.00;79.10;;;;;;1907496;75;21531;-58
2022/09/16 03:41:33;;;;;;;4.35;1.40;;;22.00;79.00;;;;;;1907368;75;21019;-58
2022/09/16 03:44:03;;;;;;;1.95;1.10;;;22.10;79.10;;;;;;1907469;75;20998;-59
2022/09/16 03:46:32;;;;;;;2.98;1.10;;;22.00;79.10;;;;;;1907499;75;21010;-58
2022/09/16 03:49:02;;;;;;;2.85;1.17;;;22.10;79.20;;;;;;1907548;75;21002;-58
2022/09/16 03:51:31;;;;;;;3.10;1.35;;;22.00;79.00;;;;;;1907452;75;21022;-58
2022/09/16 03:54:00;;;;;;;4.12;1.87;;;22.10;78.80;;;;;;1907390;75;21526;-58
2022/09/16 03:56:30;;;;;;;2.52;1.25;;;22.10;78.40;;;;;;1907351;75;21024;-58
2022/09/16 03:58:59;;;;;;;2.72;1.10;;;22.10;77.80;;;;;;1907494;75;21018;-58
2022/09/16 04:01:28;;;;;;;4.10;1.40;;;22.10;77.50;;;;;;1907412;75;21030;-58
2022/09/16 04:03:58;;;;;;;5.40;1.20;;;22.20;77.50;;;;;;1907504;75;21066;-59
2022/09/16 04:06:27;;;;;;;2.58;1.20;;;22.20;77.60;;;;;;1907570;75;21089;-58
2022/09/16 04:08:59;;;;;;;5.28;1.57;;;22.30;77.50;;;;;;1907463;75;21042;-58
2022/09/16 04:11:30;;;;;;;10.15;1.70;;;22.30;77.50;;;;;;1907404;75;21112;-59
2022/09/16 04:13:59;;;;;;;1.90;1.20;;;22.30;77.40;;;;;;1907439;75;21547;-59
2022/09/16 04:16:28;;;;;;;2.08;1.00;;;22.30;77.30;;;;;;1907346;75;21018;-58
2022/09/16 04:18:58;;;;;;;3.37;1.52;;;22.30;77.20;;;;;;1907445;75;21074;-59
2022/09/16 04:21:29;;;;;;;2.80;1.65;;;22.40;77.10;;;;;;1906866;75;21070;-59
2022/09/16 04:24:02;;;;;;;2.90;1.22;;;22.40;76.70;;;;;;1907344;75;21112;-58
2022/09/16 04:26:31;;;;;;;1.35;1.10;;;22.50;76.70;;;;;;1907328;75;21472;-58
2022/09/16 04:29:01;;;;;;;6.12;1.17;;;22.60;76.50;;;;;;1907322;75;21092;-58
2022/09/16 04:31:31;;;;;;;3.45;1.30;;;22.70;75.90;;;;;;1907425;75;21035;-58
2022/09/16 04:34:02;;;;;;;2.77;1.20;;;22.70;75.50;;;;;;1908709;75;21245;-58
2022/09/16 04:36:32;;;;;;;9.38;1.92;;;22.80;75.50;;;;;;1917210;75;21021;-58
2022/09/16 04:39:01;;;;;;;1.30;1.20;;;22.80;75.20;;;;;;1917375;75;21046;-58
2022/09/16 04:41:31;;;;;;;5.12;3.02;;;22.80;75.20;;;;;;1917233;75;21095;-59
2022/09/16 04:44:01;;;;;;;3.05;1.77;;;22.80;75.20;;;;;;1917328;75;21034;-58
2022/09/16 04:46:31;;;;;;;4.75;1.10;;;22.90;75.30;;;;;;1917207;75;21030;-58
2022/09/16 04:49:00;;;;;;;3.22;1.20;;;22.90;75.20;;;;;;1917179;75;21045;-58
2022/09/16 04:51:31;;;;;;;3.33;0.93;;;22.90;74.90;;;;;;1917180;75;21017;-58
2022/09/16 04:54:00;;;;;;;3.47;0.93;;;23.00;74.50;;;;;;1917273;75;21018;-59
2022/09/16 04:56:31;;;;;;;7.60;1.87;;;23.00;74.20;;;;;;1917387;75;21099;-59
2022/09/16 04:59:02;;;;;;;4.70;1.62;;;23.00;74.10;;;;;;1917269;75;21026;-59
2022/09/16 05:01:34;;;;;;;3.50;1.65;;;23.10;73.60;;;;;;1917272;75;21022;-59
2022/09/16 05:04:05;;;;;;;2.62;1.07;;;23.10;73.60;;;;;;1917224;75;21476;-58
2022/09/16 05:06:37;;;;;;;2.50;1.15;;;23.10;73.60;;;;;;1917232;75;21002;-59
2022/09/16 05:09:07;;;;;;;4.75;1.07;;;23.10;73.60;;;;;;1917404;75;21038;-59
2022/09/16 05:11:39;;;;;;;4.95;1.60;;;23.10;73.50;;;;;;1917348;75;21076;-59
2022/09/16 05:14:14;;;;;;;2.33;1.00;;;23.10;73.60;;;;;;1917288;75;21105;-59
2022/09/16 05:16:44;;;;;;;4.28;1.47;;;23.10;74.30;;;;;;1917237;75;21022;-59
2022/09/16 05:19:19;;;;;;;4.97;0.95;;;23.10;73.60;;;;;;1917361;75;21095;-59
2022/09/16 05:21:48;;;;;;;3.98;1.45;;;23.10;73.40;;;;;;1917247;75;21520;-59
2022/09/16 05:24:18;;;;;;;5.72;1.40;;;23.10;73.40;;;;;;1917283;75;21069;-59
2022/09/16 05:26:47;;;;;;;2.83;1.10;;;23.20;73.10;;;;;;1917410;75;21179;-59
2022/09/16 05:29:17;;;;;;;2.30;1.12;;;23.20;73.10;;;;;;1917341;75;21077;-59
2022/09/16 05:31:47;;;;;;;4.78;1.20;;;23.20;72.90;;;;;;1917366;75;21026;-60
2022/09/16 05:34:23;;;;;;;4.03;1.20;;;23.20;72.70;;;;;;1917304;75;21084;-59
2022/09/16 05:36:53;;;;;;;1.32;1.07;;;23.20;72.20;;;;;;1911876;75;21022;-59
2022/09/16 05:39:23;;;;;;;1.67;1.10;;;23.30;72.00;;;;;;1917243;75;21034;-59
2022/09/16 05:41:57;;;;;;;2.35;1.05;;;23.30;71.70;;;;;;1917290;75;21096;-59
2022/09/16 05:44:28;;;;;;;4.53;1.45;;;23.30;71.50;;;;;;1917425;75;21021;-59
2022/09/16 05:46:58;;;;;;;1.90;1.17;;;23.30;71.10;;;;;;1917303;75;21093;-59
2022/09/16 05:49:27;;;;;;;1.60;0.88;;;23.30;71.20;;;;;;1917388;75;21025;-59
2022/09/16 05:51:56;;;;;;;2.45;1.22;;;23.30;70.50;;;;;;1917338;75;21088;-59
2022/09/16 05:54:26;;;;;;;2.77;1.30;;;23.30;70.40;;;;;;1884321;75;21038;-59
2022/09/16 05:56:55;;;;;;;5.58;1.22;;;23.30;70.30;;;;;;1917430;75;21518;-59
2022/09/16 05:59:24;;;;;;;1.92;1.10;;;23.30;70.00;;;;;;1917172;75;21014;-59
2022/09/16 06:01:54;;;;;;;3.30;1.85;;;23.30;69.90;;;;;;1917228;75;21099;-59
2022/09/16 06:04:23;;;;;;;3.45;1.70;;;23.30;70.10;;;;;;1917177;75;21108;-59
2022/09/16 06:06:53;;;;;;;4.65;1.40;;;23.30;70.20;;;;;;1917137;75;21014;-59
2022/09/16 06:09:24;;;;;;;4.10;1.55;;;23.30;70.50;;;;;;1917085;75;21026;-59
2022/09/16 06:11:54;;;;;;;5.22;1.37;;;23.30;70.80;;;;;;1917086;75;21002;-60
2022/09/16 06:14:23;;;;;;;4.15;1.37;;;23.40;71.10;;;;;;1917200;75;21006;-59
2022/09/16 06:16:53;;;;;;;3.35;1.72;;;23.40;71.40;;;;;;1917141;75;21026;-59
2022/09/16 06:19:22;;;;;;;1.40;1.10;;;23.40;71.60;;;;;;1917208;75;21049;-58
2022/09/16 06:21:51;;;;;;;2.60;1.12;;;23.50;71.70;;;;;;1917097;75;21033;-59
2022/09/16 06:24:21;;;;;;;2.95;1.45;;;23.50;71.80;;;;;;1917155;75;21010;-59
2022/09/16 06:26:50;;;;;;;4.05;1.02;;;23.50;72.00;;;;;;1917171;75;21097;-59
2022/09/16 06:29:19;;;;;;;3.08;1.27;;;23.60;72.10;;;;;;1917146;75;21159;-59
2022/09/16 06:31:49;;;;;;;2.95;1.20;;;23.60;71.80;;;;;;1917240;75;21006;-59
2022/09/16 06:34:18;;;;;;;3.05;1.20;;;23.60;71.50;;;;;;1917225;75;21139;-59
2022/09/16 06:36:48;;;;;;;1.90;0.98;;;23.70;71.50;;;;;;1909596;75;21164;-59
2022/09/16 06:39:18;;;;;;;4.30;1.30;;;23.80;71.60;;;;;;1907458;75;21202;-59
2022/09/16 06:41:48;;;;;;;1.30;1.00;;;23.90;71.50;;;;;;1907319;75;21031;-59
2022/09/16 06:44:16;;;;;;;5.90;1.72;;;23.90;71.30;;;;;;1907316;75;21096;-59
2022/09/16 06:46:46;;;;;;;1.98;1.25;;;24.00;71.20;;;;;;1907274;75;21547;-59
2022/09/16 06:49:15;;;;;;;6.40;1.27;;;24.00;71.10;;;;;;1907256;75;21023;-59
2022/09/16 06:51:45;;;;;;;1.90;1.30;;;24.10;71.00;;;;;;1907243;75;21089;-59
2022/09/16 06:54:14;;;;;;;7.28;1.60;;;24.20;70.90;;;;;;1907431;75;21034;-59
2022/09/16 06:56:43;;;;;;;7.72;1.98;;;24.20;70.90;;;;;;1907317;75;21026;-59
2022/09/16 06:59:13;;;;;;;4.28;1.47;;;24.10;70.50;;;;;;1907381;75;21084;-59
2022/09/16 07:01:42;;;;;;;2.02;1.10;;;24.20;70.60;;;;;;1907311;75;21022;-59
2022/09/16 07:04:16;;;;;;;2.05;1.15;;;24.10;70.70;;;;;;1907371;75;20998;-59
2022/09/16 07:06:42;;;;;;;3.12;1.20;;;24.20;70.70;;;;;;1905918;75;21472;-59
2022/09/16 07:09:12;;;;;;;2.40;0.93;;;24.10;70.80;;;;;;1907425;75;20999;-59
2022/09/16 07:11:41;;;;;;;1.75;1.00;;;24.20;70.90;;;;;;1830122;78;21046;-59
2022/09/16 07:14:11;;;;;;;6.00;1.20;;;24.20;70.70;;;;;;1901397;75;21096;-59
2022/09/16 07:16:40;;;;;;;2.08;1.00;;;24.20;70.60;;;;;;1901504;75;21092;-59
2022/09/16 07:19:10;;;;;;;2.62;0.90;;;24.30;70.60;;;;;;1901312;75;21023;-59
2022/09/16 07:21:40;;;;;;;2.33;1.17;;;24.30;71.10;;;;;;1901511;75;21038;-59
2022/09/16 07:24:12;;;;;;;1.85;1.02;;;24.40;70.30;;;;;;1901352;75;21112;-59
2022/09/16 07:26:42;;;;;;;6.75;1.20;;;24.50;70.20;;;;;;1901428;75;21096;-59
2022/09/16 07:29:17;;;;;;;3.50;1.37;;;24.50;69.70;;;;;;1901288;75;21031;-59
2022/09/16 07:31:47;;;;;;;2.75;1.35;;;24.60;69.70;;;;;;1901335;75;21455;-59
2022/09/16 07:34:16;;;;;;;3.05;1.10;;;24.70;69.20;;;;;;1901383;75;21094;-59
2022/09/16 07:36:48;;;;;;;3.10;1.30;;;24.80;68.90;;;;;;1913035;74;21128;-59
2022/09/16 07:39:19;;;;;;;2.17;1.10;;;24.80;68.50;;;;;;1923567;74;21107;-59
2022/09/16 07:41:48;;;;;;;4.10;1.52;;;24.90;68.20;;;;;;1923513;74;21096;-59
2022/09/16 07:44:19;;;;;;;4.40;1.15;;;25.00;68.00;;;;;;1923537;74;21069;-59
2022/09/16 07:46:50;;;;;;;3.42;1.10;;;25.00;67.70;;;;;;1923635;74;21038;-59
2022/09/16 07:49:19;;;;;;;1.67;1.10;;;25.10;67.40;;;;;;1923420;74;21037;-60
2022/09/16 07:51:48;;;;;;;2.47;1.15;;;25.20;67.20;;;;;;1923517;74;21069;-60
2022/09/16 07:54:24;;;;;;;2.70;1.20;;;25.30;66.80;;;;;;1923673;74;21116;-59
2022/09/16 07:57:13;;;;;;;3.35;1.12;;;25.30;66.80;;;;;;1926349;74;21069;-60
2022/09/16 07:59:42;;;;;;;1.47;1.05;;;25.40;66.10;;;;;;1924734;74;21150;-61
2022/09/16 08:02:12;;;;;;;6.37;1.95;;;25.50;65.50;;;;;;1924191;74;21123;-61
2022/09/16 08:04:41;;;;;;;2.72;1.05;;;25.50;65.20;;;;;;1926266;74;21365;-61
2022/09/16 08:07:10;;;;;;;3.62;1.40;;;25.70;64.50;;;;;;1925999;74;21071;-60
2022/09/16 08:09:40;;;;;;;13.48;1.77;;;25.70;64.10;;;;;;1926319;74;21025;-61
2022/09/16 08:12:09;;;;;;;5.83;1.77;;;25.90;62.40;;;;;;1926312;74;21096;-60
2022/09/16 08:14:39;;;;;;;3.17;1.42;;;26.00;62.50;;;;;;1926269;74;21029;-61
2022/09/16 08:17:07;;;;;;;3.62;1.25;;;26.00;61.40;;;;;;1926192;74;21018;-61
2022/09/16 08:19:38;;;;;;;3.25;1.12;;;26.10;61.40;;;;;;1926461;74;20998;-60
2022/09/16 08:22:07;;;;;;;7.62;1.40;;;26.10;61.60;;;;;;1926292;74;21026;-60
2022/09/16 08:24:36;;;;;;;4.33;1.57;;;26.10;61.20;;;;;;1925051;74;21061;-61
2022/09/16 08:27:06;;;;;;;4.30;1.25;;;26.20;60.70;;;;;;1926021;74;21013;-61
2022/09/16 08:29:35;;;;;;;3.87;1.20;;;26.20;60.60;;;;;;1926387;74;21626;-60
2022/09/16 08:32:05;;;;;;;3.98;1.30;;;26.30;60.40;;;;;;1926696;74;20986;-61
2022/09/16 08:34:34;;;;;;;4.60;1.82;;;26.40;59.90;;;;;;1926344;74;21005;-61
2022/09/16 08:37:03;;;;;;;3.80;1.22;;;26.50;58.60;;;;;;1926545;74;21006;-60
2022/09/16 08:39:33;;;;;;;8.60;1.47;;;26.50;57.80;;;;;;1926554;74;21005;-60
2022/09/16 08:42:20;;;;;;;3.30;1.32;;;26.60;57.90;;;;;;1926340;74;21065;-61
2022/09/16 08:45:16;;;;;;;2.90;1.50;;;26.60;57.60;;;;;;1924943;74;21455;-61
2022/09/16 08:48:06;;;;;;;2.62;1.20;;;26.70;57.60;;;;;;1926531;74;21041;-60
2022/09/16 08:50:45;;;;;;;12.93;1.57;;;26.70;57.00;;;;;;1926309;74;21041;-60
2022/09/16 08:53:37;;;;;;;4.87;1.72;;;26.80;57.00;;;;;;1924324;74;21013;-60
2022/09/16 08:56:22;;;;;;;2.27;1.20;;;26.80;56.20;;;;;;1916074;74;21073;-62
2022/09/16 08:59:09;;;;;;;6.92;1.55;;;26.90;56.50;;;;;;1902506;75;21147;-63
2022/09/16 09:01:47;;;;;;;5.95;1.22;;;26.90;56.50;;;;;;1903500;75;21429;-60
2022/09/16 09:04:28;;;;;;;5.22;1.57;;;26.90;56.40;;;;;;1832708;75;21096;-58
2022/09/16 09:07:13;;;;;;;4.40;2.30;;;27.00;56.80;;;;;;1902571;75;21142;-59
2022/09/16 09:10:09;;;;;;;5.92;1.45;;;27.00;56.90;;;;;;1902929;75;21058;-57
2022/09/16 09:12:57;;;;;;;2.58;1.40;;;27.00;57.00;;;;;;1902593;75;21532;-57
2022/09/16 09:15:53;;;;;;;6.22;1.55;;;27.10;57.10;;;;;;1902919;75;21026;-58
2022/09/16 09:18:27;;;;;;;5.12;1.50;;;27.10;56.80;;;;;;1894728;75;21564;-59
2022/09/16 09:21:20;;;;;;;4.78;1.12;;;27.10;57.40;;;;;;1870610;75;21091;-59
2022/09/16 09:24:20;;;;;;;3.52;1.25;;;27.10;57.30;;;;;;1903546;75;21043;-56
2022/09/16 09:26:53;;;;;;;2.33;1.05;;;27.10;58.00;;;;;;1903460;75;21081;-58
2022/09/16 09:29:25;;;;;;;2.37;1.32;;;27.10;58.10;;;;;;1903564;75;21085;-57
2022/09/16 09:32:20;;;;;;;3.65;1.32;;;27.10;57.60;;;;;;1900394;74;21063;-57
2022/09/16 09:35:00;;;;;;;5.43;1.57;;;27.20;57.00;;;;;;1838059;75;21024;-57
2022/09/16 09:37:41;;;;;;;7.80;1.85;;;27.20;57.20;;;;;;1896492;75;21779;-57
2022/09/16 09:40:17;;;;;;;4.80;1.80;;;27.20;56.90;;;;;;1854713;76;21112;-58
2022/09/16 09:42:58;;;;;;;2.65;1.57;;;27.20;56.90;;;;;;1890008;76;21100;-58
2022/09/16 09:45:33;;;;;;;3.12;1.40;;;27.30;56.80;;;;;;1870640;76;21037;-57
2022/09/16 09:48:37;;;;;;;3.02;1.30;;;27.30;56.50;;;;;;1890098;76;21069;-61
2022/09/16 09:51:27;;;;;;;1.90;1.00;;;27.30;56.20;;;;;;1890323;76;21033;-60
2022/09/16 09:53:59;;;;;;;5.47;1.77;;;27.30;55.60;;;;;;1942353;74;20987;-61
2022/09/16 09:56:37;;;;;;;5.22;1.65;;;27.40;55.50;;;;;;1942114;73;21547;-60
2022/09/16 09:59:32;;;;;;;6.22;1.57;;;27.30;55.60;;;;;;1942053;73;21043;-63
2022/09/16 10:02:02;;;;;;;4.47;1.75;;;27.40;55.00;;;;;;1942170;74;21053;-63
2022/09/16 10:04:34;;;;;;;4.05;1.42;;;27.30;55.50;;;;;;1941924;74;20991;-62
2022/09/16 10:07:05;;;;;;;5.42;1.10;;;27.30;55.60;;;;;;1941755;74;21073;-63
2022/09/16 10:09:36;;;;;;;3.08;1.20;;;27.30;55.90;;;;;;1941967;73;21054;-65
2022/09/16 10:12:06;;;;;;;4.83;1.25;;;27.20;56.00;;;;;;1941866;74;21058;-63
2022/09/16 10:14:37;;;;;;;4.85;1.67;;;27.20;56.50;;;;;;1942190;74;20991;-60
2022/09/16 10:17:17;;;;;;;2.87;1.27;;;27.10;56.30;;;;;;1942014;73;21059;-62
2022/09/16 10:20:03;;;;;;;5.60;1.98;;;27.20;55.90;;;;;;1942053;74;21057;-63
2022/09/16 10:22:34;;;;;;;2.92;1.42;;;27.20;55.80;;;;;;1941889;73;20967;-65
2022/09/16 10:25:06;;;;;;;5.42;1.62;;;27.10;56.00;;;;;;1941989;74;21050;-65
2022/09/16 10:27:37;;;;;;;3.15;1.45;;;27.20;56.00;;;;;;1941874;73;21034;-61
2022/09/16 10:30:15;;;;;;;3.37;1.15;;;27.20;55.60;;;;;;1941906;73;21108;-62
2022/09/16 10:33:05;;;;;;;1.50;1.20;;;27.20;55.30;;;;;;1941915;74;21093;-63
2022/09/16 10:35:36;;;;;;;1.98;1.40;;;27.20;55.30;;;;;;1942017;73;21116;-59
2022/09/16 10:38:23;;;;;;;3.77;2.62;;;27.20;55.30;;;;;;1941897;73;21046;-60
2022/09/16 10:40:56;;;;;;;5.80;1.65;;;27.20;55.50;;;;;;1941939;73;20995;-64
2022/09/16 10:43:27;;;;;;;3.35;1.27;;;27.20;55.60;;;;;;1938656;74;21007;-61
2022/09/16 10:45:57;;;;;;;1.82;1.30;;;27.20;55.60;;;;;;1942336;74;20991;-59
2022/09/16 10:48:31;;;;;;;2.95;1.42;;;27.30;55.30;;;;;;1942671;74;20991;-60
2022/09/16 10:51:06;;;;;;;2.95;1.22;;;27.30;54.90;;;;;;1942962;74;21100;-60
2022/09/16 10:53:40;;;;;;;3.55;1.50;;;27.30;54.50;;;;;;1961992;72;21038;-61
2022/09/16 10:56:30;;;;;;;3.58;1.30;;;27.30;54.50;;;;;;1970151;72;21074;-60
2022/09/16 10:59:07;;;;;;;5.05;1.60;;;27.30;55.00;;;;;;1970736;73;21069;-60
2022/09/16 11:02:15;;;;;;;2.65;1.70;;;27.30;54.90;;;;;;1970432;72;21019;-61
2022/09/16 11:04:46;;;;;;;3.00;1.60;;;27.40;54.40;;;;;;1970865;72;21469;-61
2022/09/16 11:07:32;;;;;;;8.58;1.50;;;27.50;54.50;;;;;;1970693;73;21460;-61
2022/09/16 11:10:24;;;;;;;2.33;1.12;;;27.60;54.30;;;;;;1970551;73;21097;-61
2022/09/16 11:13:08;;;;;;;2.62;1.47;;;27.60;53.50;;;;;;1912215;75;21026;-61
2022/09/16 11:15:52;;;;;;;3.07;1.20;;;27.70;53.80;;;;;;1912244;75;21034;-61
2022/09/16 11:18:27;;;;;;;3.00;1.22;;;27.60;53.30;;;;;;1911704;75;21088;-61
2022/09/16 11:21:21;;;;;;;6.30;1.32;;;27.50;53.40;;;;;;1911854;75;21022;-61
2022/09/16 11:24:02;;;;;;;4.33;1.47;;;27.50;52.90;;;;;;1912227;75;21112;-61
2022/09/16 11:26:46;;;;;;;4.28;1.62;;;27.40;53.20;;;;;;1912062;75;21481;-61
2022/09/16 11:29:24;;;;;;;4.92;1.60;;;27.30;53.70;;;;;;1911955;75;21414;-61
2022/09/16 11:32:19;;;;;;;6.03;1.67;;;27.30;54.00;;;;;;1910852;75;21086;-61
2022/09/16 11:34:54;;;;;;;2.40;1.47;;;27.30;54.20;;;;;;1912317;75;21031;-61
2022/09/16 11:37:29;;;;;;;5.97;1.80;;;27.20;54.10;;;;;;1911425;75;21120;-61
2022/09/16 11:40:09;;;;;;;2.90;1.65;;;27.20;54.30;;;;;;1912142;75;21100;-61
2022/09/16 11:42:44;;;;;;;2.47;1.50;;;27.30;54.20;;;;;;1912165;75;21023;-62
2022/09/16 11:45:22;;;;;;;2.67;1.07;;;27.30;54.20;;;;;;1911684;75;21508;-62
2022/09/16 11:48:14;;;;;;;3.87;2.15;;;27.30;53.80;;;;;;1912454;75;21104;-61
2022/09/16 11:50:58;;;;;;;3.72;1.30;;;27.30;54.00;;;;;;1912356;74;21147;-61
2022/09/16 11:53:30;;;;;;;2.45;2.05;;;27.30;53.90;;;;;;1911723;75;21201;-61
2022/09/16 11:56:02;;;;;;;3.90;1.40;;;27.40;53.80;;;;;;1910248;75;21109;-61
2022/09/16 11:58:34;;;;;;;2.02;1.10;;;27.50;53.60;;;;;;1911821;75;21030;-61
2022/09/16 12:01:21;;;;;;;2.10;1.35;;;27.60;53.10;;;;;;1912260;75;21058;-60
2022/09/16 12:03:59;;;;;;;3.52;1.30;;;27.70;52.90;;;;;;1881185;75;21050;-60
2022/09/16 12:06:32;;;;;;;3.52;1.40;;;27.70;52.80;;;;;;1912205;75;21015;-60
2022/09/16 12:09:12;;;;;;;3.30;1.40;;;27.80;52.40;;;;;;1912296;75;21054;-61
2022/09/16 12:11:44;;;;;;;1.47;1.07;;;27.90;52.50;;;;;;1875228;74;21537;-61
2022/09/16 12:14:25;;;;;;;3.15;1.40;;;27.90;52.50;;;;;;1888930;76;21035;-61
2022/09/16 12:16:57;;;;;;;1.90;1.30;;;27.90;52.60;;;;;;1888996;76;21027;-61
2022/09/16 12:19:29;;;;;;;2.77;1.22;;;28.00;52.40;;;;;;1889062;76;21024;-61
2022/09/16 12:22:10;;;;;;;5.50;1.80;;;28.00;52.20;;;;;;1888253;76;21011;-61
2022/09/16 12:24:45;;;;;;;11.45;2.05;;;27.90;52.30;;;;;;1812994;79;21490;-60
2022/09/16 12:27:26;;;;;;;3.77;1.30;;;27.90;52.60;;;;;;1888809;76;21158;-61
2022/09/16 12:30:04;;;;;;;3.08;2.15;;;27.80;52.50;;;;;;1888961;76;21098;-61
2022/09/16 12:32:40;;;;;;;3.25;1.50;;;27.80;52.80;;;;;;1886699;76;21622;-61
2022/09/16 12:35:27;;;;;;;2.65;1.40;;;27.80;52.60;;;;;;1888905;76;21047;-61
2022/09/16 12:37:57;;;;;;;2.60;1.42;;;27.80;52.80;;;;;;1888868;76;21035;-61
2022/09/16 12:40:35;;;;;;;7.10;1.30;;;27.90;52.90;;;;;;1888980;76;21109;-61
2022/09/16 12:43:25;;;;;;;2.27;1.57;;;27.90;52.40;;;;;;1887924;75;21032;-61
2022/09/16 12:46:09;;;;;;;3.05;1.37;;;28.00;52.00;;;;;;1888920;76;21101;-61
2022/09/16 12:48:55;;;;;;;7.20;4.47;;;28.00;51.50;;;;;;1887405;76;21036;-61
2022/09/16 12:51:59;;;;;;;3.80;1.52;;;28.00;51.30;;;;;;1885208;76;21529;-61
2022/09/16 12:54:47;;;;;;;4.22;1.50;;;27.90;51.00;;;;;;1887040;75;21055;-61
2022/09/16 12:57:38;;;;;;;2.75;1.20;;;27.90;51.10;;;;;;1887102;76;21031;-61
2022/09/16 13:00:20;;;;;;;16.32;2.00;;;27.80;51.00;;;;;;1888887;76;21055;-61
2022/09/16 13:02:58;;;;;;;8.68;2.40;;;27.70;51.10;;;;;;1888879;76;21055;-60
2022/09/16 13:05:32;;;;;;;1.80;1.20;;;27.60;51.00;;;;;;1888848;76;21571;-60
2022/09/16 13:08:07;;;;;;;2.45;1.20;;;27.60;51.10;;;;;;1888714;75;21092;-61
2022/09/16 13:10:42;;;;;;;3.72;1.30;;;27.60;51.20;;;;;;1888829;76;21031;-61
2022/09/16 13:13:17;;;;;;;1.92;1.25;;;27.50;51.00;;;;;;1915405;75;21048;-61
2022/09/16 13:15:49;;;;;;;2.80;1.42;;;27.50;51.10;;;;;;1918615;75;21050;-61
2022/09/16 13:18:27;;;;;;;2.15;1.22;;;27.40;50.90;;;;;;1919408;75;21116;-61
2022/09/16 13:21:09;;;;;;;4.08;2.15;;;27.30;50.40;;;;;;1921442;75;21062;-61
2022/09/16 13:23:44;;;;;;;2.40;1.20;;;27.30;50.40;;;;;;1886274;75;21049;-61
2022/09/16 13:26:13;;;;;;;2.22;1.42;;;27.30;50.30;;;;;;1920287;75;21104;-61
2022/09/16 13:28:45;;;;;;;3.52;1.50;;;27.20;50.10;;;;;;1921735;75;21006;-61
2022/09/16 13:31:17;;;;;;;4.85;1.40;;;27.20;50.40;;;;;;1921748;75;21038;-61